Time;durP1;ratioP1;P1;durP2;ratioP2;P2;SDS_P1;SDS_P2;PMS_P1;PMS_P2;Temp;Humidity;BMP_temperature;BMP_pressure;BME280_temperature;BME280_humidity;BME280_pressure;Samples;Min_cycle;Max_cycle;Signal;HPM_P1;HPM_P2
2023/04/28 00:01:46;;;;;;;12.47;6.83;;;4.50;99.90;;;;;;5072847;28;20095;-24
2023/04/28 00:04:12;;;;;;;7.47;5.82;;;4.60;99.90;;;;;;5073849;28;20482;-23
2023/04/28 00:06:39;;;;;;;7.88;6.18;;;4.50;99.90;;;;;;5073774;28;20119;-24
2023/04/28 00:09:09;;;;;;;10.95;7.07;;;4.50;99.90;;;;;;5074309;28;20075;-24
2023/04/28 00:11:37;;;;;;;9.82;6.82;;;4.50;99.90;;;;;;5073724;28;20060;-23
2023/04/28 00:14:03;;;;;;;8.57;6.65;;;4.50;99.90;;;;;;5073724;28;20053;-26
2023/04/28 00:16:29;;;;;;;8.52;6.32;;;4.50;99.90;;;;;;5074200;28;20048;-26
2023/04/28 00:18:55;;;;;;;9.73;6.50;;;4.50;99.90;;;;;;5073668;28;20045;-26
2023/04/28 00:21:21;;;;;;;13.73;5.82;;;4.50;99.90;;;;;;5072302;28;20048;-26
2023/04/28 00:23:47;;;;;;;9.15;6.35;;;4.50;99.90;;;;;;5073167;28;20059;-26
2023/04/28 00:26:12;;;;;;;12.95;6.95;;;4.50;99.90;;;;;;5073534;28;20135;-26
2023/04/28 00:28:38;;;;;;;10.05;6.32;;;4.40;99.90;;;;;;5073532;28;20053;-26
2023/04/28 00:31:14;;;;;;;10.18;7.00;;;4.50;99.90;;;;;;5072348;28;20393;-26
2023/04/28 00:33:40;;;;;;;10.88;6.57;;;4.50;99.90;;;;;;5072664;28;20044;-26
2023/04/28 00:36:07;;;;;;;12.35;6.90;;;4.50;99.90;;;;;;5072770;28;20048;-26
2023/04/28 00:38:33;;;;;;;8.50;6.63;;;4.50;99.90;;;;;;5073125;28;20488;-26
2023/04/28 00:40:58;;;;;;;10.00;7.07;;;4.50;99.90;;;;;;5073435;28;20119;-26
2023/04/28 00:43:24;;;;;;;12.75;7.32;;;4.50;99.90;;;;;;5073690;28;20444;-26
2023/04/28 00:45:50;;;;;;;14.15;7.30;;;4.50;99.90;;;;;;5072058;28;20486;-26
2023/04/28 00:48:17;;;;;;;12.43;7.47;;;4.40;99.90;;;;;;5072086;28;20052;-26
2023/04/28 00:50:44;;;;;;;9.77;7.32;;;4.50;99.90;;;;;;5072075;28;20128;-26
2023/04/28 00:53:11;;;;;;;11.57;7.30;;;4.40;99.90;;;;;;5073306;28;20056;-26
2023/04/28 00:55:37;;;;;;;10.68;7.30;;;4.40;99.90;;;;;;5073231;28;20084;-26
2023/04/28 00:58:04;;;;;;;11.53;6.80;;;4.30;99.90;;;;;;5073215;28;20052;-26
2023/04/28 01:00:30;;;;;;;12.55;8.15;;;4.30;99.90;;;;;;5055757;28;20117;-26
2023/04/28 01:02:59;;;;;;;11.48;7.57;;;4.20;99.90;;;;;;5073198;28;20045;-26
2023/04/28 01:05:25;;;;;;;10.38;7.25;;;4.20;99.90;;;;;;5073197;28;20394;-26
2023/04/28 01:07:51;;;;;;;12.03;7.77;;;4.20;99.90;;;;;;5073170;28;20048;-26
2023/04/28 01:10:17;;;;;;;10.75;7.32;;;4.20;99.90;;;;;;5073090;28;20036;-25
2023/04/28 01:12:42;;;;;;;12.57;7.85;;;4.20;99.90;;;;;;5072610;28;20071;-25
2023/04/28 01:15:16;;;;;;;10.87;7.87;;;4.20;99.90;;;;;;5072960;28;20170;-26
2023/04/28 01:17:42;;;;;;;11.65;7.70;;;4.20;99.90;;;;;;5072824;28;20516;-26
2023/04/28 01:20:08;;;;;;;9.93;7.53;;;4.20;99.90;;;;;;5056243;28;20080;-26
2023/04/28 01:22:34;;;;;;;10.93;7.40;;;4.20;99.90;;;;;;5072582;28;20051;-26
2023/04/28 01:25:00;;;;;;;8.18;6.80;;;4.20;99.90;;;;;;5072947;28;20040;-26
2023/04/28 01:27:25;;;;;;;10.50;7.03;;;4.30;99.90;;;;;;5073540;28;20131;-25
2023/04/28 01:29:51;;;;;;;9.40;6.63;;;4.30;99.90;;;;;;5073154;28;20127;-26
2023/04/28 01:32:17;;;;;;;10.57;6.40;;;4.30;99.90;;;;;;5073778;28;20048;-26
2023/04/28 01:34:42;;;;;;;10.97;7.10;;;4.30;99.90;;;;;;5057093;28;20385;-26
2023/04/28 01:37:08;;;;;;;9.75;7.05;;;4.30;99.90;;;;;;5076457;28;20102;-26
2023/04/28 01:39:34;;;;;;;10.13;7.05;;;4.30;99.90;;;;;;5076388;28;20504;-26
2023/04/28 01:42:01;;;;;;;12.23;7.57;;;4.20;99.90;;;;;;5075768;28;20055;-26
2023/04/28 01:44:27;;;;;;;8.73;6.78;;;4.30;99.90;;;;;;5075159;28;20076;-26
2023/04/28 01:46:52;;;;;;;13.82;7.38;;;4.30;99.90;;;;;;5076995;28;20524;-26
2023/04/28 01:49:18;;;;;;;12.32;7.05;;;4.30;99.90;;;;;;5075302;28;20136;-26
2023/04/28 01:51:44;;;;;;;11.77;7.57;;;4.30;99.90;;;;;;5076095;28;20040;-26
2023/04/28 01:54:09;;;;;;;13.38;7.63;;;4.20;99.90;;;;;;5076180;28;20076;-26
2023/04/28 01:56:35;;;;;;;8.68;6.47;;;4.30;99.90;;;;;;5074982;28;20558;-26
2023/04/28 01:59:01;;;;;;;10.02;7.53;;;4.40;99.90;;;;;;5074941;28;20482;-26
2023/04/28 02:01:27;;;;;;;13.88;6.95;;;4.40;99.90;;;;;;5075323;28;20037;-26
2023/04/28 02:03:53;;;;;;;9.75;6.80;;;4.40;99.90;;;;;;5074792;28;20095;-26
2023/04/28 02:06:19;;;;;;;13.43;8.10;;;4.40;99.90;;;;;;5075904;28;20044;-26
2023/04/28 02:08:45;;;;;;;12.60;7.25;;;4.50;99.90;;;;;;5075840;28;20048;-26
2023/04/28 02:11:11;;;;;;;11.32;7.40;;;4.60;99.90;;;;;;5074234;28;20052;-26
2023/04/28 02:13:37;;;;;;;12.38;7.20;;;4.50;99.90;;;;;;5075781;28;20048;-26
2023/04/28 02:16:02;;;;;;;10.98;6.70;;;4.60;99.90;;;;;;5074620;28;20135;-26
2023/04/28 02:18:28;;;;;;;12.93;8.27;;;4.60;99.90;;;;;;5075704;28;20452;-26
2023/04/28 02:20:54;;;;;;;9.07;7.25;;;4.60;99.90;;;;;;5075655;28;20123;-26
2023/04/28 02:23:20;;;;;;;10.65;7.78;;;4.60;99.90;;;;;;5075589;28;20060;-26
2023/04/28 02:25:46;;;;;;;12.82;8.38;;;4.60;99.90;;;;;;5075563;28;20055;-26
2023/04/28 02:28:12;;;;;;;11.13;8.48;;;4.60;99.90;;;;;;5075347;28;20246;-26
2023/04/28 02:30:37;;;;;;;12.13;8.93;;;4.60;99.90;;;;;;5075346;28;20045;-26
2023/04/28 02:33:03;;;;;;;12.77;8.10;;;4.60;99.90;;;;;;5074425;28;20044;-26
2023/04/28 02:35:29;;;;;;;12.70;8.70;;;4.70;99.90;;;;;;5075331;28;20048;-26
2023/04/28 02:37:54;;;;;;;13.80;9.98;;;4.70;99.90;;;;;;5074126;28;20098;-26
2023/04/28 02:40:20;;;;;;;15.40;10.35;;;4.70;99.90;;;;;;5075880;28;20044;-26
2023/04/28 02:42:46;;;;;;;18.08;11.48;;;4.70;99.90;;;;;;5074494;28;20098;-26
2023/04/28 02:45:12;;;;;;;17.17;10.88;;;4.70;99.90;;;;;;5057155;28;20301;-26
2023/04/28 02:47:37;;;;;;;14.13;10.60;;;4.70;99.90;;;;;;5075102;28;20041;-26
2023/04/28 02:50:03;;;;;;;22.00;11.50;;;4.80;99.90;;;;;;5057131;28;20059;-26
2023/04/28 02:52:29;;;;;;;17.63;11.13;;;4.80;1.00;;;;;;5075038;28;20044;-26
2023/04/28 02:54:56;;;;;;;14.00;10.82;;;4.70;99.90;;;;;;5074940;28;20083;-26
2023/04/28 02:57:23;;;;;;;24.70;12.70;;;4.90;1.00;;;;;;5074915;28;20040;-26
2023/04/28 02:59:49;;;;;;;21.75;11.52;;;4.80;1.00;;;;;;5075690;28;20049;-26
2023/04/28 03:02:15;;;;;;;17.67;11.90;;;4.90;1.00;;;;;;5074780;28;20409;-26
2023/04/28 03:04:40;;;;;;;19.05;11.57;;;4.90;1.00;;;;;;5074774;28;20059;-26
2023/04/28 03:07:06;;;;;;;20.65;12.77;;;4.90;1.00;;;;;;5056862;28;20124;-26
2023/04/28 03:09:32;;;;;;;19.42;12.85;;;5.00;1.00;;;;;;5057861;28;20044;-26
2023/04/28 03:11:58;;;;;;;17.85;11.77;;;5.00;1.00;;;;;;5074629;28;20471;-26
2023/04/28 03:14:23;;;;;;;21.10;12.95;;;5.00;1.00;;;;;;5074574;28;20048;-26
2023/04/28 03:16:49;;;;;;;18.75;12.75;;;5.10;1.00;;;;;;5073326;28;20091;-26
2023/04/28 03:19:15;;;;;;;16.77;12.55;;;5.10;1.00;;;;;;5074182;28;20087;-26
2023/04/28 03:21:41;;;;;;;17.50;12.52;;;5.20;1.00;;;;;;5074945;28;20044;-26
2023/04/28 03:24:07;;;;;;;20.10;13.60;;;5.20;1.00;;;;;;5074395;28;20048;-26
2023/04/28 03:26:33;;;;;;;19.95;13.70;;;5.20;1.00;;;;;;5056595;28;20393;-27
2023/04/28 03:28:59;;;;;;;21.17;14.15;;;5.20;1.00;;;;;;5074842;28;20075;-26
2023/04/28 03:31:24;;;;;;;24.88;15.35;;;5.30;1.00;;;;;;5073063;28;20051;-26
2023/04/28 03:33:50;;;;;;;18.58;12.93;;;5.30;1.00;;;;;;5074277;28;20075;-26
2023/04/28 03:36:16;;;;;;;23.90;14.10;;;5.20;1.00;;;;;;5074760;28;20048;-26
2023/04/28 03:38:42;;;;;;;19.25;12.82;;;5.30;1.00;;;;;;5074143;28;20432;-26
2023/04/28 03:41:07;;;;;;;20.33;13.88;;;5.20;1.00;;;;;;5074363;28;20048;-26
2023/04/28 03:43:36;;;;;;;20.98;13.23;;;5.20;1.00;;;;;;5074159;28;20048;-26
2023/04/28 03:46:02;;;;;;;20.08;12.80;;;5.10;1.00;;;;;;5073072;28;20047;-26
2023/04/28 03:48:28;;;;;;;18.30;12.68;;;5.00;1.00;;;;;;5073347;28;20079;-26
2023/04/28 03:50:54;;;;;;;21.10;13.63;;;5.10;1.00;;;;;;5073618;28;20481;-26
2023/04/28 03:53:19;;;;;;;18.20;13.20;;;5.00;1.00;;;;;;5072999;28;20055;-26
2023/04/28 03:55:45;;;;;;;21.63;14.32;;;5.00;1.00;;;;;;5073891;28;20048;-26
2023/04/28 03:58:11;;;;;;;23.20;14.48;;;5.00;1.00;;;;;;5073030;28;20045;-26
2023/04/28 04:00:37;;;;;;;21.42;13.20;;;5.00;1.00;;;;;;5073823;28;20083;-26
2023/04/28 04:03:03;;;;;;;22.10;14.48;;;5.00;1.00;;;;;;5074352;28;20092;-26
2023/04/28 04:05:29;;;;;;;21.33;14.35;;;5.00;1.00;;;;;;5073634;28;20085;-26
2023/04/28 04:07:55;;;;;;;28.02;14.15;;;5.00;1.00;;;;;;5072558;28;20048;-26
2023/04/28 04:10:20;;;;;;;24.63;15.05;;;5.10;1.00;;;;;;5073416;28;20037;-26
2023/04/28 04:12:46;;;;;;;21.48;14.45;;;5.10;1.00;;;;;;5073832;28;20506;-26
2023/04/28 04:15:12;;;;;;;25.83;15.10;;;5.20;1.00;;;;;;5072503;28;20214;-26
2023/04/28 04:17:37;;;;;;;23.90;15.27;;;5.30;1.00;;;;;;5074481;28;20127;-27
2023/04/28 04:20:04;;;;;;;25.08;15.23;;;5.40;1.00;;;;;;5074457;28;20052;-26
2023/04/28 04:22:29;;;;;;;19.98;14.07;;;5.40;1.00;;;;;;5073545;28;20543;-26
2023/04/28 04:24:55;;;;;;;21.17;14.73;;;5.40;99.90;;;;;;5073595;28;20048;-26
2023/04/28 04:27:21;;;;;;;24.50;14.52;;;5.50;99.90;;;;;;5072665;28;20375;-26
2023/04/28 04:29:46;;;;;;;18.65;12.60;;;5.50;99.90;;;;;;5055673;28;20464;-26
2023/04/28 04:32:12;;;;;;;19.02;14.57;;;5.60;99.90;;;;;;5074016;28;20048;-26
2023/04/28 04:34:38;;;;;;;21.55;13.95;;;5.60;99.90;;;;;;5072510;28;20390;-26
2023/04/28 04:37:04;;;;;;;23.10;13.85;;;5.60;99.90;;;;;;5073156;28;20048;-26
2023/04/28 04:39:30;;;;;;;21.83;13.23;;;5.70;99.90;;;;;;5073147;28;20052;-26
2023/04/28 04:41:56;;;;;;;20.70;13.52;;;5.70;99.90;;;;;;5073443;28;20047;-26
2023/04/28 04:44:22;;;;;;;18.45;12.13;;;5.70;99.90;;;;;;5072425;28;20493;-26
2023/04/28 04:46:48;;;;;;;18.33;12.68;;;5.80;99.90;;;;;;5039040;28;20053;-26
2023/04/28 04:49:13;;;;;;;21.38;13.00;;;5.80;99.90;;;;;;5055372;28;20059;-26
2023/04/28 04:51:39;;;;;;;24.73;14.48;;;5.80;99.90;;;;;;5072124;28;20044;-26
2023/04/28 04:54:05;;;;;;;20.73;13.60;;;5.90;99.90;;;;;;5073307;28;20094;-26
2023/04/28 04:56:30;;;;;;;18.30;12.20;;;5.90;61.50;;;;;;5073288;28;20047;-26
2023/04/28 04:58:56;;;;;;;23.45;12.52;;;5.90;96.10;;;;;;5055372;28;20070;-26
2023/04/28 05:01:22;;;;;;;21.45;12.35;;;5.90;85.30;;;;;;5039282;28;20036;-26
2023/04/28 05:03:48;;;;;;;17.92;12.77;;;5.90;68.00;;;;;;5072523;28;20060;-26
2023/04/28 05:06:13;;;;;;;16.63;11.02;;;5.90;19.40;;;;;;5074038;28;20051;-26
2023/04/28 05:08:39;;;;;;;18.20;11.95;;;6.00;1.00;;;;;;5074325;28;20049;-26
2023/04/28 05:11:05;;;;;;;18.60;10.68;;;6.00;1.00;;;;;;5076579;28;20416;-25
2023/04/28 05:13:30;;;;;;;16.38;11.98;;;6.00;1.00;;;;;;5076879;28;20063;-26
2023/04/28 05:15:56;;;;;;;16.65;11.68;;;6.00;1.00;;;;;;5077659;28;20144;-26
2023/04/28 05:18:22;;;;;;;17.27;10.73;;;6.00;1.00;;;;;;5075580;28;20048;-26
2023/04/28 05:20:48;;;;;;;16.92;11.25;;;6.10;1.00;;;;;;5077584;28;20044;-26
2023/04/28 05:23:13;;;;;;;19.45;11.77;;;6.00;1.00;;;;;;5076676;28;20467;-27
2023/04/28 05:25:39;;;;;;;18.75;11.82;;;6.00;1.00;;;;;;5076964;28;20056;-26
2023/04/28 05:28:09;;;;;;;15.95;11.05;;;6.10;1.00;;;;;;5076657;28;20040;-26
2023/04/28 05:30:34;;;;;;;15.98;10.43;;;6.10;1.00;;;;;;5077063;28;20047;-26
2023/04/28 05:33:00;;;;;;;14.70;10.88;;;6.10;1.00;;;;;;5076599;28;20139;-26
2023/04/28 05:35:26;;;;;;;19.35;10.48;;;6.20;1.00;;;;;;5076793;28;20044;-26
2023/04/28 05:37:52;;;;;;;19.05;10.98;;;6.20;1.00;;;;;;5076489;28;20053;-26
2023/04/28 05:40:18;;;;;;;13.55;10.65;;;6.20;1.00;;;;;;5075462;28;20053;-26
2023/04/28 05:42:43;;;;;;;17.08;10.45;;;6.30;1.00;;;;;;5075203;28;20128;-26
2023/04/28 05:45:10;;;;;;;14.18;10.30;;;6.30;1.00;;;;;;5075422;28;20066;-26
2023/04/28 05:47:35;;;;;;;15.85;11.00;;;6.40;1.00;;;;;;5076203;28;20059;-26
2023/04/28 05:50:02;;;;;;;14.57;10.15;;;6.40;1.00;;;;;;5076189;28;20131;-26
2023/04/28 05:52:27;;;;;;;18.77;12.38;;;6.50;1.00;;;;;;5075099;28;20511;-26
2023/04/28 05:54:53;;;;;;;15.13;10.75;;;6.50;1.00;;;;;;5076180;28;20074;-26
2023/04/28 05:57:19;;;;;;;19.33;11.07;;;6.50;99.90;;;;;;5076093;28;20048;-26
2023/04/28 05:59:45;;;;;;;13.45;10.13;;;6.50;1.00;;;;;;5075936;28;20083;-26
2023/04/28 06:02:10;;;;;;;16.83;11.05;;;6.60;1.00;;;;;;5076422;28;20045;-27
2023/04/28 06:04:38;;;;;;;14.57;10.43;;;6.60;1.00;;;;;;5075831;28;20048;-26
2023/04/28 06:07:03;;;;;;;17.27;10.60;;;6.70;1.00;;;;;;5075793;28;20097;-26
2023/04/28 06:09:30;;;;;;;13.40;10.35;;;6.70;99.90;;;;;;5075835;28;20127;-26
2023/04/28 06:11:55;;;;;;;14.55;10.23;;;6.80;99.90;;;;;;5074435;28;20174;-26
2023/04/28 06:14:22;;;;;;;15.93;10.60;;;6.80;99.90;;;;;;5076280;28;20575;-26
2023/04/28 06:16:48;;;;;;;15.25;10.95;;;6.80;99.90;;;;;;5075416;28;20414;-26
2023/04/28 06:19:14;;;;;;;17.30;9.88;;;7.00;1.00;;;;;;5076272;28;20051;-26
2023/04/28 06:21:40;;;;;;;16.33;10.35;;;7.00;1.00;;;;;;5074063;28;20037;-26
2023/04/28 06:24:06;;;;;;;14.82;10.52;;;7.10;1.00;;;;;;5074281;28;20054;-26
2023/04/28 06:26:32;;;;;;;15.82;10.73;;;7.20;99.90;;;;;;5075944;28;20056;-26
2023/04/28 06:28:57;;;;;;;15.73;10.00;;;7.30;99.90;;;;;;5075368;28;20044;-25
2023/04/28 06:31:23;;;;;;;15.05;9.70;;;7.50;99.90;;;;;;5075912;28;20093;-26
2023/04/28 06:33:49;;;;;;;17.20;10.05;;;7.40;99.90;;;;;;5074695;28;20052;-26
2023/04/28 06:36:16;;;;;;;15.57;9.60;;;7.70;99.90;;;;;;5075070;28;20052;-26
2023/04/28 06:38:43;;;;;;;13.55;9.27;;;7.80;99.90;;;;;;5074833;28;20375;-27
2023/04/28 06:41:10;;;;;;;16.98;10.05;;;7.90;99.90;;;;;;5074228;28;20478;-26
2023/04/28 06:43:36;;;;;;;13.27;9.68;;;7.90;99.90;;;;;;5073682;28;20529;-26
2023/04/28 06:46:02;;;;;;;13.70;10.27;;;8.00;99.90;;;;;;5074448;28;20104;-27
2023/04/28 06:48:28;;;;;;;14.85;9.32;;;8.00;99.90;;;;;;5075153;28;20044;-26
2023/04/28 06:50:53;;;;;;;15.48;10.82;;;8.10;99.90;;;;;;5075003;28;20044;-27
2023/04/28 06:53:19;;;;;;;12.15;9.35;;;8.20;99.90;;;;;;5074851;28;20490;-27
2023/04/28 06:55:45;;;;;;;13.13;9.55;;;8.20;37.00;;;;;;5056870;28;20048;-26
2023/04/28 06:58:11;;;;;;;17.08;9.77;;;8.20;20.00;;;;;;5074778;28;20090;-26
2023/04/28 07:00:36;;;;;;;13.52;8.20;;;8.30;93.40;;;;;;5074977;28;20041;-26
2023/04/28 07:03:03;;;;;;;14.25;8.75;;;8.30;1.00;;;;;;5074717;28;20083;-26
2023/04/28 07:05:29;;;;;;;14.20;8.77;;;8.40;1.00;;;;;;5073753;28;20131;-26
2023/04/28 07:07:54;;;;;;;12.50;8.27;;;8.50;1.00;;;;;;5074635;28;20132;-26
2023/04/28 07:10:20;;;;;;;15.43;9.18;;;8.60;1.00;;;;;;5056874;28;20478;-26
2023/04/28 07:12:46;;;;;;;10.35;7.97;;;8.70;1.00;;;;;;5056217;28;20052;-26
2023/04/28 07:15:12;;;;;;;13.38;8.75;;;8.90;1.00;;;;;;5074266;28;20382;-26
2023/04/28 07:17:37;;;;;;;14.95;9.05;;;8.90;99.90;;;;;;5074437;28;20040;-27
2023/04/28 07:20:04;;;;;;;14.98;9.68;;;8.90;99.90;;;;;;5073364;28;20056;-26
2023/04/28 07:22:30;;;;;;;12.63;8.07;;;8.90;50.90;;;;;;5074259;28;20127;-27
2023/04/28 07:24:56;;;;;;;13.82;8.20;;;8.80;99.90;;;;;;5074289;28;20126;-27
2023/04/28 07:27:22;;;;;;;11.82;8.45;;;8.90;99.90;;;;;;5073550;28;20044;-26
2023/04/28 07:29:48;;;;;;;14.23;8.50;;;8.90;99.90;;;;;;5074177;28;20056;-27
2023/04/28 07:32:13;;;;;;;12.70;8.32;;;8.90;99.90;;;;;;5073311;28;20043;-26
2023/04/28 07:34:39;;;;;;;13.48;8.57;;;8.90;98.60;;;;;;5074617;28;20500;-27
2023/04/28 07:37:05;;;;;;;13.23;8.85;;;8.90;99.90;;;;;;5074079;28;20080;-27
2023/04/28 07:39:33;;;;;;;11.70;9.05;;;9.00;47.50;;;;;;5073979;28;20048;-27
2023/04/28 07:42:02;;;;;;;18.00;8.25;;;9.10;99.90;;;;;;5074041;28;20052;-28
2023/04/28 07:44:28;;;;;;;12.07;8.20;;;9.20;99.90;;;;;;5074085;28;20044;-26
2023/04/28 07:46:55;;;;;;;11.00;8.10;;;9.30;1.00;;;;;;5073787;28;20036;-26
2023/04/28 07:49:20;;;;;;;15.68;9.20;;;9.20;1.00;;;;;;5074787;28;20074;-26
2023/04/28 07:51:46;;;;;;;13.30;8.38;;;9.10;99.90;;;;;;5073916;28;20431;-27
2023/04/28 07:54:12;;;;;;;12.82;8.25;;;9.10;1.00;;;;;;5073896;28;20080;-26
2023/04/28 07:56:38;;;;;;;13.23;7.97;;;9.10;1.00;;;;;;5073916;28;20045;-27
2023/04/28 07:59:03;;;;;;;13.35;8.65;;;9.10;1.00;;;;;;5073720;28;20040;-27
2023/04/28 08:01:29;;;;;;;14.32;9.07;;;9.00;1.00;;;;;;5073844;28;20097;-26
2023/04/28 08:03:55;;;;;;;12.07;9.32;;;8.90;1.00;;;;;;5073814;28;20477;-26
2023/04/28 08:06:21;;;;;;;10.35;8.10;;;8.90;8.50;;;;;;5072821;28;20049;-26
2023/04/28 08:08:46;;;;;;;12.07;8.23;;;8.90;1.00;;;;;;5072540;28;20044;-26
2023/04/28 08:11:12;;;;;;;12.98;9.25;;;8.80;1.00;;;;;;5072259;28;20092;-26
2023/04/28 08:13:38;;;;;;;12.10;9.07;;;8.80;9.50;;;;;;5072220;28;20052;-27
2023/04/28 08:16:04;;;;;;;11.77;8.52;;;8.80;1.00;;;;;;5073696;28;20051;-26
2023/04/28 08:18:30;;;;;;;16.30;8.82;;;8.80;14.90;;;;;;5073643;28;20052;-27
2023/04/28 08:20:56;;;;;;;11.45;8.82;;;8.90;87.50;;;;;;5073606;28;20127;-26
2023/04/28 08:23:21;;;;;;;14.15;9.38;;;9.00;99.90;;;;;;5073151;28;20124;-26
2023/04/28 08:25:48;;;;;;;11.65;8.85;;;9.00;99.90;;;;;;5073627;28;20049;-26
2023/04/28 08:28:14;;;;;;;13.55;9.27;;;9.00;99.90;;;;;;5073513;28;20040;-27
2023/04/28 08:30:40;;;;;;;14.85;9.05;;;9.00;99.90;;;;;;5072173;28;20063;-26
2023/04/28 08:33:05;;;;;;;14.70;8.65;;;8.90;99.90;;;;;;5073336;28;20105;-26
2023/04/28 08:35:32;;;;;;;16.08;9.13;;;8.90;99.90;;;;;;5071977;28;20037;-26
2023/04/28 08:37:57;;;;;;;14.23;9.38;;;8.90;99.90;;;;;;5073525;28;20173;-26
2023/04/28 08:40:24;;;;;;;14.75;9.75;;;8.90;99.90;;;;;;5073282;28;20063;-26
2023/04/28 08:42:50;;;;;;;14.18;9.43;;;8.90;99.90;;;;;;5074067;28;20040;-26
2023/04/28 08:45:16;;;;;;;15.15;10.27;;;9.00;99.90;;;;;;5077982;28;20071;-25
2023/04/28 08:47:44;;;;;;;18.05;11.43;;;9.10;1.00;;;;;;5077316;28;20124;-25
2023/04/28 08:50:11;;;;;;;13.73;11.15;;;9.30;1.00;;;;;;5077239;28;20052;-25
2023/04/28 08:52:38;;;;;;;14.55;10.85;;;9.60;1.00;;;;;;5077141;28;20040;-25
2023/04/28 08:55:09;;;;;;;13.20;10.30;;;9.90;16.70;;;;;;5077237;28;20571;-25
2023/04/28 08:57:42;;;;;;;15.98;10.15;;;10.10;83.20;;;;;;5077010;28;20086;-25
2023/04/28 09:00:08;;;;;;;12.90;10.25;;;10.40;72.80;;;;;;5078045;28;20040;-25
2023/04/28 09:02:36;;;;;;;12.65;9.00;;;10.60;99.90;;;;;;5077068;28;20051;-25
2023/04/28 09:05:09;;;;;;;14.85;9.98;;;10.90;99.90;;;;;;5076960;28;20052;-26
2023/04/28 09:07:35;;;;;;;12.40;9.68;;;11.10;99.90;;;;;;5076869;28;20147;-26
2023/04/28 09:10:24;;;;;;;18.08;11.00;;;11.30;81.70;;;;;;5075769;28;20124;-26
2023/04/28 09:12:52;;;;;;;17.08;10.60;;;11.20;1.00;;;;;;5076396;28;20060;-26
2023/04/28 09:15:35;;;;;;;16.25;10.13;;;11.20;1.00;;;;;;5077448;28;20049;-26
2023/04/28 09:18:06;;;;;;;13.88;10.20;;;11.00;99.90;;;;;;5076214;28;20131;-26
2023/04/28 09:20:34;;;;;;;15.85;9.95;;;10.90;99.90;;;;;;5077452;28;20051;-26
2023/04/28 09:23:19;;;;;;;15.20;10.38;;;11.10;1.00;;;;;;5077280;28;20044;-26
2023/04/28 09:26:06;;;;;;;11.65;9.38;;;11.30;1.00;;;;;;5076633;28;20040;-27
2023/04/28 09:28:33;;;;;;;11.52;9.10;;;11.50;99.90;;;;;;5076556;28;20091;-26
2023/04/28 09:30:59;;;;;;;17.30;9.52;;;11.80;99.90;;;;;;5075310;28;20051;-25
2023/04/28 09:33:26;;;;;;;15.10;9.95;;;12.30;99.90;;;;;;5076519;28;20051;-24
2023/04/28 09:35:52;;;;;;;16.40;11.10;;;12.80;99.90;;;;;;5076553;28;20070;-23
2023/04/28 09:38:19;;;;;;;15.05;9.25;;;13.20;99.90;;;;;;5076435;28;20131;-23
2023/04/28 09:40:51;;;;;;;15.30;9.40;;;13.60;1.00;;;;;;5075727;28;20394;-23
2023/04/28 09:43:28;;;;;;;12.63;9.43;;;14.20;1.00;;;;;;5077216;28;20076;-24
2023/04/28 09:45:55;;;;;;;10.95;8.45;;;14.70;1.00;;;;;;5077015;28;20059;-24
2023/04/28 09:48:35;;;;;;;13.55;9.00;;;15.50;99.90;;;;;;5076779;28;20048;-24
2023/04/28 09:51:06;;;;;;;10.90;8.63;;;15.90;99.90;;;;;;5076026;28;20131;-25
2023/04/28 09:53:33;;;;;;;13.48;7.78;;;15.90;99.90;;;;;;5076612;28;20047;-25
2023/04/28 09:56:02;;;;;;;11.75;7.90;;;15.70;99.90;;;;;;5075201;28;20377;-24
2023/04/28 09:58:29;;;;;;;11.82;8.70;;;15.20;99.90;;;;;;5076516;28;20044;-25
2023/04/28 10:00:57;;;;;;;11.35;8.70;;;15.20;99.90;;;;;;5075746;28;20425;-25
2023/04/28 10:03:25;;;;;;;10.45;8.63;;;15.00;99.90;;;;;;5075879;28;20044;-24
2023/04/28 10:05:52;;;;;;;13.50;8.80;;;14.70;99.90;;;;;;5075694;28;20124;-25
2023/04/28 10:08:22;;;;;;;14.20;9.43;;;14.50;99.90;;;;;;5075852;28;20135;-24
2023/04/28 10:10:55;;;;;;;11.73;9.18;;;14.20;99.90;;;;;;5075628;28;20052;-24
2023/04/28 10:13:22;;;;;;;12.88;9.50;;;14.20;99.90;;;;;;5074829;28;20140;-24
2023/04/28 10:15:48;;;;;;;11.98;8.73;;;14.10;1.00;;;;;;5075590;28;20490;-25
2023/04/28 10:18:15;;;;;;;12.18;8.77;;;14.10;1.00;;;;;;5075597;28;20038;-24
2023/04/28 10:20:45;;;;;;;13.80;9.10;;;14.10;1.00;;;;;;5075657;28;20091;-25
2023/04/28 10:23:33;;;;;;;13.15;8.77;;;14.20;1.00;;;;;;5075551;28;20048;-25
2023/04/28 10:25:59;;;;;;;13.57;8.35;;;14.30;99.90;;;;;;5075528;28;20044;-25
2023/04/28 10:28:26;;;;;;;11.57;8.27;;;14.40;1.00;;;;;;5076149;28;20048;-24
2023/04/28 10:31:14;;;;;;;11.25;8.85;;;14.40;99.90;;;;;;5075350;28;20482;-24
2023/04/28 10:33:41;;;;;;;12.10;8.77;;;14.50;99.90;;;;;;5075326;28;20379;-24
2023/04/28 10:36:07;;;;;;;11.30;8.88;;;14.40;99.90;;;;;;5074134;28;20045;-25
2023/04/28 10:38:34;;;;;;;14.98;8.93;;;14.30;99.90;;;;;;5074295;28;20053;-24
2023/04/28 10:41:03;;;;;;;10.52;8.57;;;14.10;99.90;;;;;;5075249;28;20048;-24
2023/04/28 10:43:31;;;;;;;10.60;8.63;;;13.90;99.90;;;;;;5074052;28;20040;-24
2023/04/28 10:46:00;;;;;;;15.57;9.07;;;13.70;1.00;;;;;;5074949;28;20084;-23
2023/04/28 10:48:32;;;;;;;12.35;9.48;;;13.40;41.90;;;;;;5074985;28;20048;-23
2023/04/28 10:51:08;;;;;;;11.90;9.77;;;13.00;99.90;;;;;;5075438;28;20044;-23
2023/04/28 10:53:43;;;;;;;15.23;10.48;;;12.80;1.00;;;;;;5073938;28;20061;-23
2023/04/28 10:56:20;;;;;;;15.38;10.43;;;12.80;99.90;;;;;;5073716;28;20048;-23
2023/04/28 10:58:49;;;;;;;17.88;10.70;;;12.70;99.90;;;;;;5057904;28;20048;-23
2023/04/28 11:01:20;;;;;;;15.02;10.40;;;12.50;1.00;;;;;;5074797;28;20472;-22
2023/04/28 11:03:47;;;;;;;15.38;11.90;;;12.30;99.90;;;;;;5074964;28;20166;-22
2023/04/28 11:06:25;;;;;;;13.18;10.57;;;12.20;99.90;;;;;;5073701;28;20490;-23
2023/04/28 11:08:52;;;;;;;17.13;12.32;;;12.20;1.00;;;;;;5057954;28;20044;-23
2023/04/28 11:11:23;;;;;;;18.05;13.60;;;12.20;1.00;;;;;;5074226;28;20143;-23
2023/04/28 11:13:49;;;;;;;13.48;10.93;;;12.30;99.90;;;;;;5074545;28;20056;-23
2023/04/28 11:16:18;;;;;;;17.48;11.75;;;12.40;95.60;;;;;;5074629;28;20102;-23
2023/04/28 11:18:44;;;;;;;15.18;11.02;;;12.40;99.90;;;;;;5074501;28;20052;-23
2023/04/28 11:21:10;;;;;;;18.48;11.25;;;12.60;99.90;;;;;;5074356;28;20093;-23
2023/04/28 11:23:38;;;;;;;15.15;11.10;;;12.70;99.90;;;;;;5074281;28;20044;-23
2023/04/28 11:26:04;;;;;;;18.85;11.82;;;12.80;99.90;;;;;;5074806;28;20058;-23
2023/04/28 11:28:30;;;;;;;14.05;11.02;;;12.80;99.90;;;;;;5056636;28;20056;-23
2023/04/28 11:31:19;;;;;;;15.80;11.88;;;12.90;99.90;;;;;;5074188;28;20052;-23
2023/04/28 11:34:04;;;;;;;14.20;10.85;;;12.90;99.90;;;;;;5057979;28;20489;-23
2023/04/28 11:36:36;;;;;;;15.18;10.27;;;12.80;99.90;;;;;;5074110;28;20131;-23
2023/04/28 11:39:07;;;;;;;18.73;10.93;;;12.70;99.90;;;;;;5074191;28;20079;-23
2023/04/28 11:41:34;;;;;;;21.70;11.60;;;12.70;99.90;;;;;;5074027;28;20064;-23
2023/04/28 11:44:08;;;;;;;17.63;12.52;;;12.60;99.90;;;;;;5074095;28;20048;-23
2023/04/28 11:46:34;;;;;;;19.02;11.32;;;12.50;99.90;;;;;;5074158;28;20049;-23
2023/04/28 11:49:03;;;;;;;14.10;10.88;;;12.30;1.00;;;;;;5074518;28;20048;-23
2023/04/28 11:51:41;;;;;;;16.35;12.25;;;12.20;1.00;;;;;;5073828;28;20041;-23
2023/04/28 11:54:10;;;;;;;16.30;12.40;;;12.20;1.00;;;;;;5073239;28;20048;-23
2023/04/28 11:56:38;;;;;;;14.73;10.95;;;12.10;1.00;;;;;;5073806;28;20123;-23
2023/04/28 11:59:07;;;;;;;17.38;12.05;;;12.10;1.00;;;;;;5072931;28;20052;-23
2023/04/28 12:01:36;;;;;;;17.23;12.57;;;12.00;1.00;;;;;;5072838;28;20149;-23
2023/04/28 12:04:02;;;;;;;13.60;10.98;;;11.90;1.00;;;;;;5073657;28;20090;-23
2023/04/28 12:06:28;;;;;;;16.75;11.65;;;11.80;1.00;;;;;;5073822;28;20129;-23
2023/04/28 12:08:54;;;;;;;15.85;12.80;;;11.70;1.00;;;;;;5074144;28;20044;-23
2023/04/28 12:11:20;;;;;;;24.25;12.75;;;11.70;92.00;;;;;;5073353;28;20060;-23
2023/04/28 12:14:06;;;;;;;17.15;12.98;;;11.60;99.90;;;;;;5074034;28;20079;-24
2023/04/28 12:16:42;;;;;;;16.10;13.65;;;11.60;99.90;;;;;;5073578;28;20048;-23
2023/04/28 12:19:09;;;;;;;17.38;13.50;;;11.50;99.90;;;;;;5072520;28;20094;-23
2023/04/28 12:21:37;;;;;;;19.35;12.88;;;11.50;99.90;;;;;;5074094;28;20125;-23
2023/04/28 12:24:13;;;;;;;24.15;15.05;;;11.50;99.90;;;;;;5072374;28;20054;-23
2023/04/28 12:26:40;;;;;;;16.58;13.05;;;11.60;99.90;;;;;;5074111;28;20137;-23
2023/04/28 12:29:05;;;;;;;21.00;14.32;;;11.80;99.90;;;;;;5073061;28;20506;-23
2023/04/28 12:31:31;;;;;;;20.25;14.05;;;11.90;99.90;;;;;;5073327;28;20163;-23
2023/04/28 12:33:57;;;;;;;18.70;15.13;;;12.00;1.00;;;;;;5074176;28;20044;-24
2023/04/28 12:36:23;;;;;;;16.85;14.98;;;12.10;1.00;;;;;;5072369;28;20410;-24
2023/04/28 12:38:50;;;;;;;22.30;14.88;;;12.10;1.00;;;;;;5073323;28;20508;-24
2023/04/28 12:41:16;;;;;;;19.58;13.57;;;12.20;1.00;;;;;;5073777;28;20066;-24
2023/04/28 12:43:43;;;;;;;18.08;14.27;;;12.20;1.00;;;;;;5073800;28;20131;-24